createdAt,value
2023-04-14T00:02:14.022Z,9.88
2023-04-14T00:04:41.175Z,9.85
2023-04-14T00:07:16.050Z,9.83
2023-04-14T00:09:41.423Z,9.80
2023-04-14T00:12:12.816Z,9.78
2023-04-14T00:14:36.252Z,9.76
2023-04-14T00:17:20.494Z,9.74
2023-04-14T00:19:46.578Z,9.72
2023-04-14T00:22:22.111Z,9.69
2023-04-14T00:24:45.837Z,9.69
2023-04-14T00:27:09.482Z,9.68
2023-04-14T00:29:38.222Z,9.68
2023-04-14T00:32:01.845Z,9.68
2023-04-14T00:34:26.953Z,9.69
2023-04-14T00:36:54.258Z,9.69
2023-04-14T00:39:18.111Z,9.71
2023-04-14T00:41:44.857Z,9.72
2023-04-14T00:44:16.319Z,9.73
2023-04-14T00:46:43.344Z,9.74
2023-04-14T00:49:07.373Z,9.74
2023-04-14T00:51:37.049Z,9.77
2023-04-14T00:54:10.865Z,9.78
2023-04-14T00:56:57.460Z,9.79
2023-04-14T00:59:32.409Z,9.80
2023-04-14T01:02:00.584Z,9.79
2023-04-14T01:04:53.496Z,9.79
2023-04-14T01:07:19.097Z,9.79
2023-04-14T01:09:45.492Z,9.78
2023-04-14T01:12:48.972Z,9.78
2023-04-14T01:15:22.612Z,9.76
2023-04-14T01:17:54.487Z,9.73
2023-04-14T01:20:26.863Z,9.71
2023-04-14T01:22:58.462Z,9.68
2023-04-14T01:26:06.404Z,9.67
2023-04-14T01:28:56.231Z,9.63
2023-04-14T01:31:44.784Z,9.59
2023-04-14T01:34:14.028Z,9.57
2023-04-14T01:37:02.216Z,9.54
2023-04-14T01:39:42.416Z,9.50
2023-04-14T01:42:32.832Z,9.45
2023-04-14T01:45:02.272Z,9.42
2023-04-14T01:47:29.409Z,9.39
2023-04-14T01:50:06.847Z,9.35
2023-04-14T01:52:54.021Z,9.32
2023-04-14T01:55:19.977Z,9.29
2023-04-14T01:57:46.065Z,9.28
2023-04-14T02:00:13.032Z,9.27
2023-04-14T02:02:42.230Z,9.25
2023-04-14T02:05:09.643Z,9.26
2023-04-14T02:07:34.818Z,9.26
2023-04-14T02:10:03.226Z,9.25
2023-04-14T02:12:31.618Z,9.24
2023-04-14T02:15:00.754Z,9.23
2023-04-14T02:17:26.624Z,9.22
2023-04-14T02:19:51.163Z,9.19
2023-04-14T02:22:15.746Z,9.17
2023-04-14T02:24:51.011Z,9.12
2023-04-14T02:27:18.209Z,9.09
2023-04-14T02:29:48.430Z,9.05
2023-04-14T02:32:21.475Z,9.00
2023-04-14T02:34:53.594Z,8.95
2023-04-14T02:37:35.871Z,8.90
2023-04-14T02:40:24.576Z,8.83
2023-04-14T02:43:02.893Z,8.77
2023-04-14T02:45:30.307Z,8.71
2023-04-14T02:47:58.154Z,8.66
2023-04-14T02:50:27.003Z,8.60
2023-04-14T02:53:00.874Z,8.54
2023-04-14T02:55:34.698Z,8.48
2023-04-14T02:57:59.494Z,8.42
2023-04-14T03:00:24.519Z,8.37
2023-04-14T03:02:51.608Z,8.33
2023-04-14T03:05:18.687Z,8.28
2023-04-14T03:07:53.716Z,8.24
2023-04-14T03:10:27.567Z,8.19
2023-04-14T03:12:54.110Z,8.16
2023-04-14T03:15:22.157Z,8.12
2023-04-14T03:17:53.455Z,8.08
2023-04-14T03:20:21.185Z,8.04
2023-04-14T03:23:00.961Z,7.99
2023-04-14T03:25:28.900Z,7.96
2023-04-14T03:27:55.346Z,7.93
2023-04-14T03:30:24.657Z,7.90
2023-04-14T03:32:52.008Z,7.86
2023-04-14T03:35:37.423Z,7.83
2023-04-14T03:38:08.496Z,7.81
2023-04-14T03:40:37.820Z,7.78
2023-04-14T03:43:03.387Z,7.76
2023-04-14T03:45:48.860Z,7.73
2023-04-14T03:48:30.611Z,7.71
2023-04-14T03:51:17.119Z,7.69
2023-04-14T03:53:47.426Z,7.68
2023-04-14T03:56:15.445Z,7.69
2023-04-14T03:58:55.859Z,7.70
2023-04-14T04:01:28.298Z,7.71
2023-04-14T04:04:05.723Z,7.73
2023-04-14T04:06:49.578Z,7.74
2023-04-14T04:09:15.336Z,7.75
2023-04-14T04:11:43.405Z,7.78
2023-04-14T04:14:08.269Z,7.80
2023-04-14T04:16:38.238Z,7.82
2023-04-14T04:19:04.646Z,7.84
2023-04-14T04:21:31.858Z,7.85
2023-04-14T04:24:15.160Z,7.85
2023-04-14T04:26:39.508Z,7.85
2023-04-14T04:29:04.017Z,7.85
2023-04-14T04:31:33.084Z,7.86
2023-04-14T04:34:08.428Z,7.87
2023-04-14T04:36:35.930Z,7.89
2023-04-14T04:39:04.066Z,7.91
2023-04-14T04:41:31.033Z,7.93
2023-04-14T04:43:58.478Z,7.93
2023-04-14T04:46:48.313Z,7.91
2023-04-14T04:49:19.914Z,7.87
2023-04-14T04:51:49.597Z,7.81
2023-04-14T04:54:33.697Z,7.76
2023-04-14T04:57:00.588Z,7.75
2023-04-14T04:59:37.399Z,7.75
2023-04-14T05:02:02.107Z,7.75
2023-04-14T05:04:28.285Z,7.75
2023-04-14T05:06:51.880Z,7.74
2023-04-14T05:09:21.089Z,7.76
2023-04-14T05:11:50.382Z,7.81
2023-04-14T05:14:14.031Z,7.85
2023-04-14T05:16:37.631Z,7.89
2023-04-14T05:19:01.441Z,7.93
2023-04-14T05:21:25.243Z,7.97
2023-04-14T05:23:51.505Z,8.02
2023-04-14T05:28:57.961Z,8.10
2023-04-14T05:31:24.758Z,8.15
2023-04-14T05:33:52.948Z,8.21
2023-04-14T05:36:26.801Z,8.27
2023-04-14T05:38:53.649Z,8.35
2023-04-14T05:41:17.290Z,8.44
2023-04-14T05:43:52.122Z,8.55
2023-04-14T05:46:19.067Z,8.60
2023-04-14T05:48:42.638Z,8.67
2023-04-14T05:51:08.467Z,8.75
2023-04-14T05:53:33.940Z,8.89
2023-04-14T05:55:59.846Z,9.05
2023-04-14T05:58:43.517Z,9.19
2023-04-14T06:01:27.511Z,9.37
2023-04-14T06:04:04.214Z,9.54
2023-04-14T06:06:28.090Z,9.67
2023-04-14T06:08:54.771Z,9.98
2023-04-14T06:11:18.225Z,10.86
2023-04-14T06:13:52.048Z,11.16
2023-04-14T06:16:15.774Z,11.39
2023-04-14T06:18:39.644Z,11.64
2023-04-14T06:21:07.163Z,11.75
2023-04-14T06:23:33.215Z,11.85
2023-04-14T06:25:57.373Z,11.95
2023-04-14T06:28:23.459Z,12.06
2023-04-14T06:30:47.464Z,12.72
2023-04-14T06:33:11.072Z,13.90
2023-04-14T06:35:35.082Z,14.88
2023-04-14T06:37:58.484Z,15.83
2023-04-14T06:40:22.215Z,16.01
2023-04-14T06:42:48.634Z,15.86
2023-04-14T06:45:12.450Z,16.23
2023-04-14T06:47:35.990Z,17.08
2023-04-14T06:49:59.782Z,17.89
2023-04-14T06:52:23.566Z,18.55
2023-04-14T06:54:47.103Z,18.54
2023-04-14T06:57:10.761Z,18.20
2023-04-14T06:59:34.485Z,17.91
2023-04-14T07:01:58.193Z,18.37
2023-04-14T07:04:22.851Z,19.14
2023-04-14T07:06:46.581Z,19.25
2023-04-14T07:09:09.952Z,19.09
2023-04-14T07:11:33.816Z,18.86
2023-04-14T07:13:57.518Z,18.80
2023-04-14T07:16:21.366Z,18.62
2023-04-14T07:18:44.981Z,18.68
2023-04-14T07:21:08.444Z,19.22
2023-04-14T07:23:33.021Z,19.79
2023-04-14T07:25:57.988Z,20.83
2023-04-14T07:28:22.581Z,21.86
2023-04-14T07:30:46.541Z,23.07
2023-04-14T07:33:10.228Z,23.93
2023-04-14T07:35:33.907Z,24.78
2023-04-14T07:37:57.638Z,25.78
2023-04-14T07:40:21.342Z,26.83
2023-04-14T07:42:46.211Z,27.90
2023-04-14T07:45:11.698Z,28.84
2023-04-14T07:47:35.454Z,29.59
2023-04-14T07:49:59.200Z,30.14
2023-04-14T07:52:22.739Z,30.66
2023-04-14T07:54:46.256Z,31.15
2023-04-14T07:57:10.230Z,31.56
2023-04-14T07:59:33.726Z,31.96
2023-04-14T08:01:57.298Z,32.30
2023-04-14T08:04:21.497Z,32.70
2023-04-14T08:06:44.945Z,33.13
2023-04-14T08:09:08.406Z,33.30
2023-04-14T08:11:31.985Z,33.31
2023-04-14T08:13:55.430Z,33.28
2023-04-14T08:16:19.283Z,33.35
2023-04-14T08:18:42.973Z,33.49
2023-04-14T08:21:06.962Z,33.35
2023-04-14T08:23:30.746Z,33.18
2023-04-14T08:25:54.181Z,33.06
2023-04-14T08:28:17.791Z,32.82
2023-04-14T08:30:41.432Z,32.59
2023-04-14T08:33:05.228Z,32.46
2023-04-14T08:35:37.400Z,32.30
2023-04-14T08:38:04.691Z,32.11
2023-04-14T08:40:35.700Z,32.05
2023-04-14T08:42:59.113Z,31.96
2023-04-14T08:45:23.769Z,32.01
2023-04-14T08:47:51.161Z,32.14
2023-04-14T08:50:18.302Z,32.28
2023-04-14T08:52:43.105Z,32.35
2023-04-14T08:55:10.797Z,32.21
2023-04-14T08:57:35.771Z,31.98
2023-04-14T08:59:59.482Z,31.82
2023-04-14T09:02:23.647Z,31.54
2023-04-14T09:04:49.179Z,31.19
2023-04-14T09:07:13.519Z,30.47
2023-04-14T09:09:37.293Z,29.97
2023-04-14T09:12:02.565Z,29.84
2023-04-14T09:14:27.272Z,29.53
2023-04-14T09:16:53.253Z,29.00
2023-04-14T09:19:17.134Z,28.71
2023-04-14T09:21:52.578Z,28.54
2023-04-14T09:24:23.023Z,28.65
2023-04-14T09:26:46.536Z,28.65
2023-04-14T09:29:09.877Z,28.12
2023-04-14T09:31:34.154Z,27.23
2023-04-14T09:33:58.216Z,26.07
2023-04-14T09:36:22.945Z,25.00
2023-04-14T09:38:47.020Z,24.13
2023-04-14T09:41:16.135Z,23.65
2023-04-14T09:43:40.094Z,23.42
2023-04-14T09:46:07.842Z,23.51
2023-04-14T09:48:31.867Z,23.84
2023-04-14T09:51:00.130Z,23.97
2023-04-14T09:53:27.109Z,23.97
2023-04-14T09:55:51.927Z,23.77
2023-04-14T09:58:21.363Z,23.78
2023-04-14T10:00:46.146Z,23.34
2023-04-14T10:03:09.707Z,23.34
2023-04-14T10:05:34.698Z,23.46
2023-04-14T10:08:03.247Z,23.41
2023-04-14T10:10:27.301Z,23.75
2023-04-14T10:12:54.008Z,23.93
2023-04-14T10:15:17.881Z,23.54
2023-04-14T10:17:42.045Z,23.10
2023-04-14T10:20:08.244Z,22.52
2023-04-14T10:22:33.089Z,22.25
2023-04-14T10:24:58.280Z,22.35
2023-04-14T10:27:22.478Z,22.36
2023-04-14T10:29:46.616Z,22.34
2023-04-14T10:32:13.415Z,22.47
2023-04-14T10:34:41.970Z,22.72
2023-04-14T10:37:16.366Z,22.82
2023-04-14T10:39:40.337Z,22.78
2023-04-14T10:42:03.943Z,22.80
2023-04-14T10:44:31.111Z,22.63
2023-04-14T10:46:55.745Z,22.18
2023-04-14T10:49:22.076Z,21.65
2023-04-14T10:51:49.190Z,21.26
2023-04-14T10:54:18.284Z,20.79
2023-04-14T10:56:41.832Z,20.53
2023-04-14T10:59:06.389Z,20.20
2023-04-14T11:01:31.544Z,20.09
2023-04-14T11:03:55.705Z,20.08
2023-04-14T11:06:52.654Z,20.01
2023-04-14T11:09:24.557Z,20.02
2023-04-14T11:11:48.504Z,20.01
2023-04-14T11:14:11.965Z,19.79
2023-04-14T11:16:42.364Z,19.85
2023-04-14T11:19:14.745Z,19.99
2023-04-14T11:21:49.677Z,20.15
2023-04-14T11:24:13.367Z,20.22
2023-04-14T11:26:36.870Z,20.30
2023-04-14T11:29:07.952Z,20.36
2023-04-14T11:31:31.526Z,20.26
2023-04-14T11:33:55.994Z,20.14
2023-04-14T11:36:19.351Z,20.09
2023-04-14T11:38:43.361Z,20.07
2023-04-14T11:41:07.377Z,19.93
2023-04-14T11:43:30.906Z,19.70
2023-04-14T11:45:54.832Z,19.47
2023-04-14T11:48:20.120Z,19.25
2023-04-14T11:50:45.428Z,19.11
2023-04-14T11:53:09.979Z,19.00
2023-04-14T11:55:34.129Z,19.02
2023-04-14T11:57:57.741Z,19.18
2023-04-14T12:00:21.872Z,19.28
2023-04-14T12:02:46.285Z,19.13
2023-04-14T12:05:11.539Z,19.09
2023-04-14T12:07:35.610Z,19.15
2023-04-14T12:09:59.334Z,19.25
2023-04-14T12:12:23.214Z,19.26
2023-04-14T12:14:48.646Z,19.11
2023-04-14T12:17:14.680Z,18.88
2023-04-14T12:19:38.383Z,18.56
2023-04-14T12:22:01.897Z,18.26
2023-04-14T12:24:32.615Z,18.05
2023-04-14T12:26:57.124Z,17.87
2023-04-14T12:29:23.527Z,17.76
2023-04-14T12:31:46.876Z,17.86
2023-04-14T12:34:14.252Z,17.99
2023-04-14T12:36:49.684Z,18.05
2023-04-14T12:39:13.990Z,18.13
2023-04-14T12:41:41.231Z,18.27
2023-04-14T12:44:15.491Z,18.33
2023-04-14T12:46:46.630Z,18.18
2023-04-14T12:49:29.875Z,18.18
2023-04-14T12:51:53.514Z,18.19
2023-04-14T12:54:17.006Z,18.19
2023-04-14T12:56:42.454Z,18.03
2023-04-14T12:59:06.208Z,17.90
2023-04-14T13:01:29.780Z,17.87
2023-04-14T13:03:54.832Z,17.93
2023-04-14T13:06:20.303Z,17.90
2023-04-14T13:08:44.480Z,17.79
2023-04-14T13:11:07.823Z,17.70
2023-04-14T13:13:31.431Z,17.63
2023-04-14T13:16:13.107Z,17.66
2023-04-14T13:18:39.138Z,17.75
2023-04-14T13:21:03.482Z,17.68
2023-04-14T13:23:26.877Z,17.43
2023-04-14T13:25:50.777Z,17.28
2023-04-14T13:28:14.491Z,17.15
2023-04-14T13:30:41.168Z,16.96
2023-04-14T13:33:04.845Z,16.93
2023-04-14T13:35:28.598Z,17.04
2023-04-14T13:37:52.000Z,17.23
2023-04-14T13:40:15.750Z,17.35
2023-04-14T13:42:39.158Z,17.35
2023-04-14T13:45:03.061Z,17.20
2023-04-14T13:47:27.894Z,17.14
2023-04-14T13:49:51.342Z,16.99
2023-04-14T13:52:15.095Z,16.86
2023-04-14T13:54:38.899Z,16.89
2023-04-14T13:57:02.879Z,16.96
2023-04-14T13:59:26.574Z,16.95
2023-04-14T14:01:50.281Z,16.92
2023-04-14T14:04:14.002Z,16.86
2023-04-14T14:06:37.643Z,16.73
2023-04-14T14:09:05.137Z,16.66
2023-04-14T14:11:29.426Z,16.62
2023-04-14T14:13:52.836Z,16.61
2023-04-14T14:16:29.454Z,16.63
2023-04-14T14:19:00.429Z,16.70
2023-04-14T14:21:24.643Z,16.72
2023-04-14T14:23:48.523Z,16.72
2023-04-14T14:26:13.340Z,16.71
2023-04-14T14:28:36.850Z,16.67
2023-04-14T14:31:00.308Z,16.58
2023-04-14T14:33:23.829Z,16.51
2023-04-14T14:35:47.738Z,16.48
2023-04-14T14:38:11.898Z,16.43
2023-04-14T14:40:35.882Z,16.40
2023-04-14T14:42:59.628Z,16.39
2023-04-14T14:45:30.348Z,16.36
2023-04-14T14:47:55.251Z,16.27
2023-04-14T14:50:18.981Z,16.23
2023-04-14T14:52:42.377Z,16.21
2023-04-14T14:55:08.067Z,16.15
2023-04-14T14:57:31.610Z,16.09
2023-04-14T15:00:07.177Z,16.01
2023-04-14T15:02:30.751Z,15.95
2023-04-14T15:04:54.974Z,15.90
2023-04-14T15:07:21.670Z,15.86
2023-04-14T15:09:47.419Z,15.82
2023-04-14T15:12:11.180Z,15.78
2023-04-14T15:14:35.281Z,15.70
2023-04-14T15:16:58.687Z,15.61
2023-04-14T15:19:22.986Z,15.53
2023-04-14T15:21:46.726Z,15.46
2023-04-14T15:24:10.338Z,15.43
2023-04-14T15:26:33.886Z,15.41
2023-04-14T15:28:57.560Z,15.38
2023-04-14T15:31:21.231Z,15.37
2023-04-14T15:33:45.721Z,15.39
2023-04-14T15:36:09.201Z,15.43
2023-04-14T15:38:32.674Z,15.43
2023-04-14T15:40:56.462Z,15.35
2023-04-14T15:43:19.912Z,15.20
2023-04-14T15:45:43.560Z,15.06
2023-04-14T15:48:07.270Z,14.96
2023-04-14T15:50:30.827Z,14.86
2023-04-14T15:52:55.198Z,14.79
2023-04-14T15:55:19.181Z,14.74
2023-04-14T15:57:42.744Z,14.71
2023-04-14T16:00:08.448Z,14.72
2023-04-14T16:02:38.227Z,14.68
2023-04-14T16:05:04.375Z,14.65
2023-04-14T16:07:28.656Z,14.62
2023-04-14T16:09:53.164Z,14.57
2023-04-14T16:12:16.551Z,14.53
2023-04-14T16:14:42.335Z,14.49
2023-04-14T16:17:06.008Z,14.46
2023-04-14T16:19:29.494Z,14.39
2023-04-14T16:21:54.188Z,14.33
2023-04-14T16:24:17.815Z,14.29
2023-04-14T16:26:42.300Z,14.24
2023-04-14T16:29:06.200Z,14.18
2023-04-14T16:31:30.512Z,14.12
2023-04-14T16:33:53.979Z,14.06
2023-04-14T16:36:18.440Z,14.01
2023-04-14T16:38:41.878Z,13.96
2023-04-14T16:41:05.601Z,13.89
2023-04-14T16:43:29.154Z,13.83
2023-04-14T16:45:52.733Z,13.75
2023-04-14T16:48:17.277Z,13.67
2023-04-14T16:50:42.126Z,13.58
2023-04-14T16:53:06.155Z,13.51
2023-04-14T16:55:29.933Z,13.43
2023-04-14T16:57:53.399Z,13.32
2023-04-14T17:00:18.337Z,13.24
2023-04-14T17:02:42.109Z,13.18
2023-04-14T17:05:09.508Z,13.13
2023-04-14T17:07:33.312Z,13.08
2023-04-14T17:09:57.064Z,13.00
2023-04-14T17:12:21.764Z,12.93
2023-04-14T17:14:45.681Z,12.83
2023-04-14T17:17:09.442Z,12.73
2023-04-14T17:19:33.633Z,12.65
2023-04-14T17:21:57.572Z,12.58
2023-04-14T17:24:20.908Z,12.52
2023-04-14T17:26:44.434Z,12.47
2023-04-14T17:29:08.715Z,12.41
2023-04-14T17:31:32.699Z,12.36
2023-04-14T17:33:57.035Z,12.30
2023-04-14T17:36:20.705Z,12.25
2023-04-14T17:38:45.395Z,12.20
2023-04-14T17:41:10.390Z,12.18
2023-04-14T17:43:37.545Z,12.14
2023-04-14T17:46:01.075Z,12.08
2023-04-14T17:48:25.129Z,12.03
2023-04-14T17:50:49.031Z,11.99
2023-04-14T17:53:16.518Z,11.95
2023-04-14T17:55:40.205Z,11.92
2023-04-14T17:58:04.469Z,11.87
2023-04-14T18:00:29.013Z,11.83
2023-04-14T18:02:53.274Z,11.78
2023-04-14T18:05:17.049Z,11.73
2023-04-14T18:07:42.129Z,11.68
2023-04-14T18:10:07.870Z,11.66
2023-04-14T18:12:40.036Z,11.62
2023-04-14T18:15:03.908Z,11.57
2023-04-14T18:17:28.377Z,11.51
2023-04-14T18:19:55.404Z,11.48
2023-04-14T18:22:18.824Z,11.44
2023-04-14T18:29:36.495Z,11.31
2023-04-14T18:32:00.075Z,11.29
2023-04-14T18:34:23.823Z,11.28
2023-04-14T18:36:51.824Z,11.27
2023-04-14T18:39:15.753Z,11.26
2023-04-14T18:41:39.643Z,11.25
2023-04-14T18:44:03.677Z,11.25
2023-04-14T18:46:27.143Z,11.26
2023-04-14T18:48:51.177Z,11.27
2023-04-14T18:51:15.424Z,11.27
2023-04-14T18:53:41.658Z,11.25
2023-04-14T18:56:09.248Z,11.23
2023-04-14T18:58:32.911Z,11.21
2023-04-14T19:00:56.758Z,11.18
2023-04-14T19:03:21.528Z,11.14
2023-04-14T19:05:46.114Z,11.11
2023-04-14T19:08:09.613Z,11.08
2023-04-14T19:10:33.481Z,11.05
2023-04-14T19:12:56.945Z,11.03
2023-04-14T19:15:20.712Z,11.02
2023-04-14T19:17:44.530Z,11.01
2023-04-14T19:20:09.842Z,10.99
2023-04-14T19:22:33.436Z,10.97
2023-04-14T19:24:57.242Z,10.98
2023-04-14T19:27:20.691Z,11.00
2023-04-14T19:29:49.241Z,11.02
2023-04-14T19:32:15.461Z,11.03
2023-04-14T19:34:38.873Z,11.04
2023-04-14T19:37:03.269Z,11.04
2023-04-14T19:39:26.943Z,11.03
2023-04-14T19:41:50.661Z,11.03
2023-04-14T19:44:14.501Z,11.02
2023-04-14T19:46:39.939Z,11.00
2023-04-14T19:49:03.983Z,10.98
2023-04-14T19:51:28.271Z,10.94
2023-04-14T19:53:52.292Z,10.93
2023-04-14T19:56:15.779Z,10.88
2023-04-14T19:58:39.739Z,10.85
2023-04-14T20:01:03.199Z,10.83
2023-04-14T20:03:27.917Z,10.82
2023-04-14T20:05:54.093Z,10.81
2023-04-14T20:08:17.658Z,10.80
2023-04-14T20:10:41.882Z,10.79
2023-04-14T20:13:05.348Z,10.76
2023-04-14T20:15:28.869Z,10.72
2023-04-14T20:17:52.488Z,10.66
2023-04-14T20:20:16.544Z,10.63
2023-04-14T20:22:40.449Z,10.59
2023-04-14T20:25:05.389Z,10.57
2023-04-14T20:27:29.319Z,10.56
2023-04-14T20:29:52.785Z,10.55
2023-04-14T20:32:16.323Z,10.54
2023-04-14T20:34:39.995Z,10.55
2023-04-14T20:37:03.511Z,10.54
2023-04-14T20:39:27.022Z,10.54
2023-04-14T20:41:51.057Z,10.54
2023-04-14T20:44:15.334Z,10.55
2023-04-14T20:46:41.825Z,10.55
2023-04-14T20:49:05.525Z,10.55
2023-04-14T20:51:31.572Z,10.53
2023-04-14T20:53:55.551Z,10.51
2023-04-14T20:56:19.062Z,10.49
2023-04-14T20:58:43.184Z,10.47
2023-04-14T21:01:06.959Z,10.44
2023-04-14T21:03:33.786Z,10.43
2023-04-14T21:05:57.420Z,10.45
2023-04-14T21:08:30.978Z,10.48
2023-04-14T21:11:18.506Z,10.49
2023-04-14T21:15:29.969Z,10.49
2023-04-14T21:16:44.520Z,10.51
2023-04-14T21:19:27.797Z,10.50
2023-04-14T21:21:51.399Z,10.50
2023-04-14T21:24:24.512Z,10.50
2023-04-14T21:27:08.433Z,10.48
2023-04-14T21:29:52.080Z,10.47
2023-04-14T21:32:18.701Z,10.43
2023-04-14T21:34:42.368Z,10.38
2023-04-14T21:37:06.533Z,10.35
2023-04-14T21:39:32.456Z,10.30
2023-04-14T21:41:57.134Z,10.25
2023-04-14T21:44:21.181Z,10.22
2023-04-14T21:46:44.607Z,10.18
2023-04-14T21:49:08.153Z,10.16
2023-04-14T21:51:31.656Z,10.14
2023-04-14T21:53:55.329Z,10.12
2023-04-14T21:56:18.715Z,10.10
2023-04-14T21:58:42.108Z,10.09
2023-04-14T22:01:06.737Z,10.09
2023-04-14T22:03:31.801Z,10.07
2023-04-14T22:05:55.482Z,10.08
2023-04-14T22:08:19.001Z,10.06
2023-04-14T22:10:42.629Z,10.05
2023-04-14T22:13:06.012Z,10.04
2023-04-14T22:15:30.004Z,10.04
2023-04-14T22:17:53.603Z,10.04
2023-04-14T22:20:17.684Z,10.04
2023-04-14T22:22:41.740Z,10.02
2023-04-14T22:25:06.993Z,10.01
2023-04-14T22:27:30.741Z,10.01
2023-04-14T22:29:54.293Z,10.02
2023-04-14T22:32:17.725Z,10.02
2023-04-14T22:34:41.873Z,10.01
2023-04-14T22:37:06.723Z,10.01
2023-04-14T22:39:30.377Z,10.02
2023-04-14T22:41:53.798Z,10.03
2023-04-14T22:44:18.609Z,10.03
2023-04-14T22:46:42.109Z,10.02
2023-04-14T22:49:05.797Z,10.01
2023-04-14T22:51:29.571Z,10.00
2023-04-14T22:53:53.187Z,9.99
2023-04-14T22:56:16.584Z,9.99
2023-04-14T22:58:40.154Z,9.98
2023-04-14T23:01:12.073Z,9.97
2023-04-14T23:03:39.446Z,9.98
2023-04-14T23:06:03.265Z,9.97
2023-04-14T23:08:26.735Z,9.95
2023-04-14T23:10:50.162Z,9.95
2023-04-14T23:13:13.448Z,9.94
2023-04-14T23:15:37.004Z,9.95
2023-04-14T23:18:08.714Z,9.94
2023-04-14T23:20:32.365Z,9.93
2023-04-14T23:22:55.879Z,9.94
2023-04-14T23:25:22.312Z,9.95
2023-04-14T23:27:48.714Z,9.96
2023-04-14T23:30:13.530Z,9.96
2023-04-14T23:32:37.172Z,9.97
2023-04-14T23:35:01.083Z,9.98
2023-04-14T23:37:33.758Z,10.01
2023-04-14T23:39:57.583Z,10.01
2023-04-14T23:42:25.705Z,10.00
2023-04-14T23:44:49.298Z,9.99
2023-04-14T23:47:12.925Z,9.97
2023-04-14T23:49:36.655Z,9.97
2023-04-14T23:52:00.430Z,9.96
2023-04-14T23:54:24.323Z,9.95
2023-04-14T23:56:48.264Z,9.95
2023-04-14T23:59:11.908Z,9.94
